Time;durP1;ratioP1;P1;durP2;ratioP2;P2;SDS_P1;SDS_P2;PMS_P1;PMS_P2;Temp;Humidity;BMP_temperature;BMP_pressure;BME280_temperature;BME280_humidity;BME280_pressure;Samples;Min_cycle;Max_cycle;Signal;HPM_P1;HPM_P2
2021/09/08 00:01:21;;;;;;;23.70;17.70;;;12.70;99.90;;;;;;6246116;23;20112;-90
2021/09/08 00:04:10;;;;;;;22.58;17.63;;;12.70;99.90;;;;;;6224911;23;20020;-91
2021/09/08 00:06:57;;;;;;;23.50;17.25;;;12.70;99.90;;;;;;6237748;23;20020;-91
2021/09/08 00:09:44;;;;;;;24.52;18.63;;;12.60;99.90;;;;;;6237025;23;20020;-91
2021/09/08 00:12:36;;;;;;;26.23;19.17;;;12.50;99.90;;;;;;6227595;23;20024;-92
2021/09/08 00:15:23;;;;;;;22.77;18.30;;;12.50;99.90;;;;;;6236098;23;20039;-91
2021/09/08 00:18:11;;;;;;;27.23;18.38;;;12.40;99.90;;;;;;6235831;23;20299;-91
2021/09/08 00:21:01;;;;;;;27.33;20.27;;;12.40;99.90;;;;;;6267239;23;20028;-91
2021/09/08 00:23:49;;;;;;;27.17;18.90;;;12.40;99.90;;;;;;6228241;23;20446;-89
2021/09/08 00:26:36;;;;;;;25.42;18.65;;;12.30;99.90;;;;;;6228455;23;20333;-89
2021/09/08 00:29:23;;;;;;;24.58;18.95;;;12.30;99.90;;;;;;6245205;23;20020;-89
2021/09/08 00:32:11;;;;;;;25.23;18.30;;;12.40;99.90;;;;;;6223116;23;20020;-93
2021/09/08 00:34:59;;;;;;;24.98;18.33;;;12.50;99.90;;;;;;6203360;23;20093;-89
2021/09/08 00:37:46;;;;;;;26.73;18.15;;;12.40;99.90;;;;;;6223324;23;20109;-91
2021/09/08 00:40:33;;;;;;;23.75;18.48;;;12.40;99.90;;;;;;6245249;23;20024;-91
2021/09/08 00:43:21;;;;;;;23.02;19.27;;;12.40;99.90;;;;;;6224756;23;20028;-91
2021/09/08 00:46:08;;;;;;;28.52;20.08;;;12.30;99.90;;;;;;6224749;23;20039;-91
2021/09/08 00:48:56;;;;;;;25.75;19.30;;;12.30;99.90;;;;;;6246212;23;20028;-92
2021/09/08 00:51:46;;;;;;;23.73;18.73;;;12.30;99.90;;;;;;6245436;23;20024;-90
2021/09/08 00:54:37;;;;;;;25.90;19.40;;;12.30;99.90;;;;;;6225081;23;20024;-90
2021/09/08 00:57:28;;;;;;;27.45;19.88;;;12.30;99.90;;;;;;6245801;23;20024;-91
2021/09/08 01:00:16;;;;;;;29.02;20.88;;;12.20;99.90;;;;;;6223186;23;20039;-90
2021/09/08 01:03:04;;;;;;;31.80;20.40;;;12.20;99.90;;;;;;6244665;23;20027;-90
2021/09/08 01:05:52;;;;;;;25.58;19.08;;;12.20;99.90;;;;;;6223897;23;20051;-91
2021/09/08 01:08:39;;;;;;;25.63;19.40;;;12.20;99.90;;;;;;6201631;23;20032;-91
2021/09/08 01:11:27;;;;;;;29.05;21.67;;;12.10;99.90;;;;;;6245400;23;20388;-89
2021/09/08 01:14:15;;;;;;;29.50;20.70;;;12.10;99.90;;;;;;6246543;23;20035;-92
2021/09/08 01:17:03;;;;;;;27.08;21.15;;;12.10;99.90;;;;;;6233650;23;20037;-91
2021/09/08 01:19:51;;;;;;;31.42;22.80;;;12.00;99.90;;;;;;6238464;23;20042;-91
2021/09/08 01:22:48;;;;;;;30.27;22.70;;;12.00;99.90;;;;;;6260363;23;20042;-89
2021/09/08 01:25:35;;;;;;;33.67;23.58;;;12.00;99.90;;;;;;6237052;23;20024;-91
2021/09/08 01:28:24;;;;;;;35.95;23.23;;;12.00;99.90;;;;;;6224519;23;20090;-89
2021/09/08 01:31:12;;;;;;;28.70;20.40;;;12.00;99.90;;;;;;6243439;23;20068;-92
2021/09/08 01:34:03;;;;;;;26.05;20.40;;;12.00;99.90;;;;;;6241907;23;20012;-90
2021/09/08 01:36:52;;;;;;;27.90;21.85;;;12.00;99.90;;;;;;6269864;22;20036;-89
2021/09/08 01:39:41;;;;;;;31.02;21.65;;;12.00;99.90;;;;;;6251020;22;20016;-88
2021/09/08 01:42:31;;;;;;;28.77;21.35;;;12.00;99.90;;;;;;6249861;23;20012;-88
2021/09/08 01:45:19;;;;;;;30.58;22.92;;;11.90;99.90;;;;;;6249987;22;20028;-89
2021/09/08 01:48:09;;;;;;;31.70;22.85;;;11.80;99.90;;;;;;6222863;23;20016;-90
2021/09/08 01:50:56;;;;;;;32.08;23.52;;;11.80;99.90;;;;;;6239110;23;20026;-92
2021/09/08 01:53:44;;;;;;;30.08;23.15;;;11.70;99.90;;;;;;6258637;23;20019;-91
2021/09/08 01:56:31;;;;;;;34.35;25.58;;;11.60;99.90;;;;;;6227586;23;20024;-91
2021/09/08 01:59:21;;;;;;;33.80;24.52;;;11.50;99.90;;;;;;6227693;23;20078;-90
2021/09/08 02:02:08;;;;;;;40.55;26.17;;;11.50;99.90;;;;;;6189456;23;20065;-91
2021/09/08 02:04:56;;;;;;;35.22;25.98;;;11.40;99.90;;;;;;6245504;23;20035;-91
2021/09/08 02:07:46;;;;;;;37.78;25.23;;;11.40;99.90;;;;;;6202791;23;20028;-92
2021/09/08 02:10:34;;;;;;;37.45;26.20;;;11.50;99.90;;;;;;6223792;23;20024;-91
2021/09/08 02:13:29;;;;;;;35.90;25.27;;;11.50;99.90;;;;;;6245721;23;20034;-90
2021/09/08 02:16:20;;;;;;;33.72;24.67;;;11.40;99.90;;;;;;6202455;23;20319;-90
2021/09/08 02:19:07;;;;;;;34.45;23.38;;;11.40;99.90;;;;;;6203689;23;20024;-92
2021/09/08 02:21:55;;;;;;;33.40;25.17;;;11.30;99.90;;;;;;6202676;23;20028;-92
2021/09/08 02:24:42;;;;;;;28.90;22.42;;;11.30;99.90;;;;;;6222320;23;20380;-91
2021/09/08 02:27:29;;;;;;;31.05;22.90;;;11.30;99.90;;;;;;6222257;23;20126;-90
2021/09/08 02:30:17;;;;;;;29.52;22.48;;;11.20;99.90;;;;;;6225237;23;20046;-90
2021/09/08 02:33:04;;;;;;;32.45;23.88;;;11.10;99.90;;;;;;6202546;22;20024;-89
2021/09/08 02:35:54;;;;;;;31.23;23.55;;;11.10;99.90;;;;;;6245690;23;20059;-92
2021/09/08 02:38:42;;;;;;;31.30;23.52;;;11.00;99.90;;;;;;6243895;23;20427;-89
2021/09/08 02:41:29;;;;;;;35.67;25.00;;;11.00;99.90;;;;;;6244751;23;20028;-91
2021/09/08 02:44:17;;;;;;;36.60;24.42;;;11.00;99.90;;;;;;6222849;23;20034;-91
2021/09/08 02:47:04;;;;;;;33.63;25.40;;;11.00;99.90;;;;;;6243685;23;20095;-91
2021/09/08 02:49:52;;;;;;;34.97;25.23;;;11.00;99.90;;;;;;6243941;23;20092;-90
2021/09/08 02:52:39;;;;;;;38.50;26.08;;;10.90;99.90;;;;;;6222004;23;20434;-91
2021/09/08 02:55:26;;;;;;;35.17;25.10;;;10.90;99.90;;;;;;6201060;23;20113;-90
2021/09/08 02:58:15;;;;;;;38.20;27.23;;;10.90;99.90;;;;;;6245067;23;20039;-89
2021/09/08 03:01:02;;;;;;;35.50;26.00;;;10.90;99.90;;;;;;6222545;23;20042;-90
2021/09/08 03:03:51;;;;;;;34.65;24.75;;;10.90;99.90;;;;;;6243468;23;20035;-92
2021/09/08 03:06:38;;;;;;;40.00;26.83;;;10.90;99.90;;;;;;6224022;23;20024;-92
2021/09/08 03:09:26;;;;;;;33.65;25.65;;;10.80;99.90;;;;;;6221758;23;20024;-89
2021/09/08 03:12:13;;;;;;;37.47;25.48;;;10.80;99.90;;;;;;6202307;23;20307;-90
2021/09/08 03:15:00;;;;;;;40.28;27.20;;;10.70;99.90;;;;;;6223107;23;20028;-89
2021/09/08 03:17:47;;;;;;;41.25;28.13;;;10.80;99.90;;;;;;6244727;23;20050;-90
2021/09/08 03:20:35;;;;;;;42.63;29.17;;;10.80;99.90;;;;;;6243748;23;20028;-91
2021/09/08 03:23:22;;;;;;;45.38;30.88;;;10.70;99.90;;;;;;6222660;23;20086;-92
2021/09/08 03:26:10;;;;;;;38.95;27.45;;;10.70;99.90;;;;;;6243553;23;20024;-91
2021/09/08 03:28:58;;;;;;;45.47;31.88;;;10.70;99.90;;;;;;6223023;23;20047;-91
2021/09/08 03:31:48;;;;;;;47.97;31.20;;;10.70;99.90;;;;;;6200332;23;20324;-91
2021/09/08 03:34:36;;;;;;;44.38;30.13;;;10.70;99.90;;;;;;6243962;23;20035;-91
2021/09/08 03:37:26;;;;;;;43.63;32.05;;;10.70;99.90;;;;;;6200287;23;20023;-91
2021/09/08 03:40:14;;;;;;;48.53;32.30;;;10.70;99.90;;;;;;6222987;23;20055;-91
2021/09/08 03:43:03;;;;;;;48.08;32.72;;;10.60;99.90;;;;;;6244852;23;20108;-89
2021/09/08 03:45:51;;;;;;;55.85;33.55;;;10.60;99.90;;;;;;6222730;23;20103;-90
2021/09/08 03:48:38;;;;;;;55.47;35.38;;;10.60;99.90;;;;;;6243133;23;20052;-89
2021/09/08 03:51:26;;;;;;;52.55;34.63;;;10.60;99.90;;;;;;6245464;23;20319;-92
2021/09/08 03:54:13;;;;;;;55.25;35.67;;;10.60;99.90;;;;;;6222335;23;20016;-90
2021/09/08 03:57:00;;;;;;;56.95;35.45;;;10.60;99.90;;;;;;6223877;23;20024;-90
2021/09/08 03:59:47;;;;;;;61.92;37.53;;;10.60;99.90;;;;;;6202208;23;20039;-89
2021/09/08 04:06:52;;;;;;;57.83;37.85;;;10.60;99.90;;;;;;6245618;23;20012;-91
2021/09/08 04:09:50;;;;;;;59.97;36.58;;;10.50;99.90;;;;;;6227901;23;20047;-90
2021/09/08 04:12:38;;;;;;;57.05;36.88;;;10.50;99.90;;;;;;6245857;23;20038;-88
2021/09/08 04:15:29;;;;;;;57.50;38.80;;;10.50;99.90;;;;;;6243186;23;20066;-87
2021/09/08 04:18:16;;;;;;;59.35;37.20;;;10.50;99.90;;;;;;6223141;23;20280;-89
2021/09/08 04:21:06;;;;;;;60.50;36.72;;;10.50;99.90;;;;;;6258514;23;20059;-88
2021/09/08 04:23:53;;;;;;;60.72;40.13;;;10.40;99.90;;;;;;6258497;22;20075;-87
2021/09/08 04:26:40;;;;;;;63.42;38.22;;;10.40;99.90;;;;;;6243766;22;20054;-89
2021/09/08 04:29:30;;;;;;;58.47;39.42;;;10.40;99.90;;;;;;6235039;23;20031;-90
2021/09/08 04:32:18;;;;;;;62.55;38.03;;;10.40;99.90;;;;;;6234713;23;20054;-90
2021/09/08 04:35:08;;;;;;;61.47;40.13;;;10.30;99.90;;;;;;6262618;23;20347;-91
2021/09/08 04:37:58;;;;;;;61.13;39.45;;;10.30;99.90;;;;;;6230793;23;20034;-90
2021/09/08 04:40:45;;;;;;;63.10;39.85;;;10.30;99.90;;;;;;6230042;23;20088;-88
2021/09/08 04:43:32;;;;;;;69.13;39.40;;;10.30;99.90;;;;;;6189676;23;20024;-90
2021/09/08 04:46:22;;;;;;;63.67;40.72;;;10.30;99.90;;;;;;6234035;23;20039;-92
2021/09/08 04:49:09;;;;;;;62.35;40.50;;;10.20;99.90;;;;;;6237593;23;20036;-90
2021/09/08 04:51:59;;;;;;;63.45;40.92;;;10.20;99.90;;;;;;6235149;23;20025;-87
2021/09/08 04:54:46;;;;;;;63.90;39.17;;;10.30;99.90;;;;;;6228913;23;20020;-89
2021/09/08 04:57:33;;;;;;;64.20;40.67;;;10.30;99.90;;;;;;6237415;23;20021;-89
2021/09/08 05:00:23;;;;;;;64.57;40.00;;;10.30;99.90;;;;;;6172183;23;20056;-89
2021/09/08 05:03:10;;;;;;;71.30;42.35;;;10.30;99.90;;;;;;6210488;23;20308;-90
2021/09/08 05:06:00;;;;;;;70.22;43.53;;;10.30;99.90;;;;;;6228184;23;20021;-89
2021/09/08 05:08:49;;;;;;;64.72;40.60;;;10.30;99.90;;;;;;6185180;23;20020;-90
2021/09/08 05:11:36;;;;;;;67.72;42.42;;;10.30;99.90;;;;;;6207712;23;20020;-88
2021/09/08 05:14:26;;;;;;;71.53;42.67;;;10.40;99.90;;;;;;6205257;23;20029;-88
2021/09/08 05:17:13;;;;;;;69.35;40.92;;;10.40;99.90;;;;;;6199321;23;20040;-89
2021/09/08 05:20:03;;;;;;;72.93;43.35;;;10.40;99.90;;;;;;6197438;23;20048;-89
2021/09/08 05:22:50;;;;;;;70.80;41.58;;;10.40;99.90;;;;;;6221732;23;20021;-89
2021/09/08 05:25:37;;;;;;;65.68;43.00;;;10.40;99.90;;;;;;6219547;23;20024;-89
2021/09/08 05:28:24;;;;;;;73.38;44.78;;;10.50;99.90;;;;;;6216919;23;20116;-91
2021/09/08 05:31:12;;;;;;;71.20;43.22;;;10.50;99.90;;;;;;6180001;23;20025;-91
2021/09/08 05:33:59;;;;;;;66.90;44.42;;;10.70;99.90;;;;;;6222381;23;20024;-92
2021/09/08 05:36:47;;;;;;;73.05;45.67;;;10.70;99.90;;;;;;6224337;23;20158;-89
2021/09/08 05:39:34;;;;;;;72.50;44.50;;;10.90;99.90;;;;;;6202480;23;20028;-88
2021/09/08 05:42:22;;;;;;;62.53;41.45;;;11.00;99.90;;;;;;6197826;23;20107;-87
2021/09/08 05:45:11;;;;;;;61.00;40.17;;;11.10;99.90;;;;;;6194941;23;20024;-88
2021/09/08 05:47:59;;;;;;;58.70;39.78;;;11.30;99.90;;;;;;6216995;23;20107;-90
2021/09/08 05:50:46;;;;;;;57.53;38.42;;;11.40;99.90;;;;;;6213314;23;20070;-90
2021/09/08 05:53:37;;;;;;;49.50;35.40;;;11.60;99.90;;;;;;6193102;23;20074;-89
2021/09/08 05:56:24;;;;;;;50.08;33.78;;;11.70;99.90;;;;;;6216616;23;20032;-90
2021/09/08 05:59:11;;;;;;;43.05;30.65;;;11.90;99.90;;;;;;6215585;23;20056;-90
2021/09/08 06:02:03;;;;;;;40.75;28.95;;;12.00;99.90;;;;;;6192666;23;20060;-88
2021/09/08 06:04:53;;;;;;;39.80;27.95;;;12.20;99.90;;;;;;6219671;23;20017;-90
2021/09/08 06:07:42;;;;;;;37.83;27.40;;;12.30;99.90;;;;;;6215635;23;20044;-88
2021/09/08 06:10:35;;;;;;;41.67;29.60;;;12.50;99.90;;;;;;6192368;23;20166;-90
2021/09/08 06:13:27;;;;;;;36.97;26.73;;;12.50;99.90;;;;;;6181417;23;20025;-86
2021/09/08 06:16:19;;;;;;;36.55;27.80;;;12.60;99.90;;;;;;6177678;23;20025;-89
2021/09/08 06:19:07;;;;;;;34.63;25.40;;;12.70;99.90;;;;;;6218039;23;20038;-89
2021/09/08 06:21:54;;;;;;;34.20;26.88;;;12.70;99.90;;;;;;6193977;23;20032;-87
2021/09/08 06:24:41;;;;;;;31.98;23.38;;;12.90;99.90;;;;;;6197591;23;20039;-92
2021/09/08 06:27:33;;;;;;;28.10;21.85;;;13.20;99.90;;;;;;6217051;23;20140;-89
2021/09/08 06:30:26;;;;;;;28.60;21.00;;;13.40;99.90;;;;;;6216686;23;20048;-92
2021/09/08 06:33:13;;;;;;;27.83;19.65;;;13.70;99.90;;;;;;6230722;23;20028;-94
2021/09/08 06:36:00;;;;;;;26.10;18.10;;;13.80;99.90;;;;;;6181884;23;20332;-87
2021/09/08 06:38:48;;;;;;;26.30;18.88;;;14.20;99.90;;;;;;6176046;23;20499;-89
2021/09/08 06:41:35;;;;;;;27.27;18.25;;;14.50;99.90;;;;;;6215012;23;20040;-87
2021/09/08 06:44:23;;;;;;;22.27;17.33;;;14.80;99.90;;;;;;6190471;23;20036;-88
2021/09/08 06:47:10;;;;;;;22.58;16.00;;;15.40;99.90;;;;;;6214090;23;20020;-89
2021/09/08 06:49:58;;;;;;;21.15;15.77;;;16.00;99.90;;;;;;6191911;23;20025;-90
2021/09/08 06:52:45;;;;;;;22.33;14.45;;;16.30;99.90;;;;;;6192489;23;20503;-92
2021/09/08 06:55:32;;;;;;;23.23;14.82;;;16.60;99.90;;;;;;6213259;23;20096;-88
2021/09/08 06:58:22;;;;;;;20.27;13.77;;;16.90;99.90;;;;;;6150954;23;20036;-90
2021/09/08 07:01:09;;;;;;;18.90;14.15;;;17.20;99.90;;;;;;6212827;23;20032;-90
2021/09/08 07:03:57;;;;;;;16.90;13.95;;;17.30;99.90;;;;;;6170869;23;20095;-89
2021/09/08 07:06:44;;;;;;;16.92;12.68;;;17.50;99.90;;;;;;6192231;23;20444;-92
2021/09/08 07:09:34;;;;;;;16.17;12.77;;;17.60;99.90;;;;;;6214739;23;20021;-91
2021/09/08 07:12:21;;;;;;;17.35;12.52;;;17.60;99.90;;;;;;6192146;23;20090;-88
2021/09/08 07:15:10;;;;;;;22.30;12.90;;;17.50;99.90;;;;;;6213599;23;20159;-87
2021/09/08 07:17:57;;;;;;;18.17;13.80;;;17.10;99.90;;;;;;6212499;23;20284;-86
2021/09/08 07:20:47;;;;;;;18.17;12.65;;;16.90;99.90;;;;;;6213713;23;20035;-90
2021/09/08 07:23:36;;;;;;;17.70;14.02;;;16.80;99.90;;;;;;6214171;23;20102;-90
2021/09/08 07:26:24;;;;;;;17.60;13.32;;;17.10;99.90;;;;;;6189058;23;20048;-87
2021/09/08 07:29:12;;;;;;;22.08;13.25;;;17.10;99.90;;;;;;6213415;23;20028;-89
2021/09/08 07:31:59;;;;;;;18.98;12.88;;;17.20;99.90;;;;;;6212992;23;20032;-90
2021/09/08 07:34:47;;;;;;;22.10;12.40;;;17.30;99.90;;;;;;6190708;23;20020;-87
2021/09/08 07:37:37;;;;;;;19.30;13.15;;;17.20;99.90;;;;;;6212439;23;20556;-86
2021/09/08 07:40:24;;;;;;;17.77;12.00;;;17.30;99.90;;;;;;6212199;23;20028;-86
2021/09/08 07:43:12;;;;;;;19.63;11.52;;;17.30;99.90;;;;;;6189836;23;20024;-88
2021/09/08 07:45:59;;;;;;;16.23;10.82;;;17.30;99.90;;;;;;6211104;23;20025;-87
2021/09/08 07:48:46;;;;;;;21.08;10.88;;;17.50;99.90;;;;;;6211754;23;20028;-86
2021/09/08 07:51:36;;;;;;;15.43;10.82;;;17.60;99.90;;;;;;6214819;23;20021;-86
2021/09/08 07:54:26;;;;;;;14.18;10.88;;;17.90;99.90;;;;;;6191142;23;20025;-87
2021/09/08 07:57:14;;;;;;;14.65;10.55;;;18.00;99.90;;;;;;6212110;23;20028;-88
2021/09/08 08:00:01;;;;;;;13.00;9.95;;;18.30;99.90;;;;;;6190719;23;20032;-90
2021/09/08 08:02:50;;;;;;;16.33;10.30;;;18.60;99.90;;;;;;6170519;23;20020;-87
2021/09/08 08:05:37;;;;;;;13.15;9.50;;;18.80;99.90;;;;;;6212521;23;20032;-87
2021/09/08 08:08:24;;;;;;;11.77;8.93;;;19.10;99.90;;;;;;6192550;23;20104;-84
2021/09/08 08:11:12;;;;;;;15.18;9.93;;;19.70;99.90;;;;;;6189811;23;20025;-88
2021/09/08 08:14:01;;;;;;;15.40;9.07;;;20.60;98.80;;;;;;6218044;23;20021;-87
2021/09/08 08:16:52;;;;;;;;;;;21.40;94.70;;;;;;6213526;23;20032;-88
2021/09/08 08:19:47;;;;;;;11.98;8.00;;;21.90;93.20;;;;;;6223427;23;19923;-91
2021/09/08 08:22:38;;;;;;;12.15;8.75;;;22.70;89.50;;;;;;6230705;23;20021;-90
2021/09/08 08:25:31;;;;;;;12.02;8.10;;;23.50;79.70;;;;;;6208136;23;20024;-91
2021/09/08 08:28:21;;;;;;;12.88;8.82;;;23.70;74.40;;;;;;6209172;23;20025;-90
2021/09/08 08:31:08;;;;;;;14.35;7.80;;;23.70;74.20;;;;;;6214897;23;20043;-89
2021/09/08 08:33:55;;;;;;;11.40;7.80;;;24.00;71.80;;;;;;6184843;23;20029;-89
2021/09/08 08:36:43;;;;;;;9.05;7.50;;;24.30;70.90;;;;;;6211459;23;20084;-89
2021/09/08 08:39:32;;;;;;;10.05;7.80;;;25.00;70.20;;;;;;6234526;23;20025;-91
2021/09/08 08:42:28;;;;;;;11.52;7.85;;;25.60;67.20;;;;;;6210766;23;20032;-91
2021/09/08 08:45:18;;;;;;;11.48;6.78;;;25.50;64.80;;;;;;6223978;23;20024;-91
2021/09/08 08:48:06;;;;;;;9.35;7.40;;;25.90;63.30;;;;;;6216513;23;20028;-90
2021/09/08 08:50:54;;;;;;;10.60;7.35;;;25.70;60.00;;;;;;6200031;23;20100;-89
2021/09/08 08:53:42;;;;;;;8.00;6.85;;;25.80;62.90;;;;;;6173184;23;20044;-89
2021/09/08 08:56:29;;;;;;;11.43;8.02;;;26.50;61.00;;;;;;6191462;23;20044;-89
2021/09/08 08:59:16;;;;;;;9.40;6.57;;;26.50;58.90;;;;;;6214658;23;20155;-90
2021/09/08 09:02:24;;;;;;;9.98;7.57;;;26.80;58.60;;;;;;6191698;23;20465;-91
2021/09/08 09:05:38;;;;;;;9.18;7.03;;;27.40;56.00;;;;;;6196214;23;20016;-91
2021/09/08 09:08:34;;;;;;;9.27;7.13;;;27.50;57.70;;;;;;6216212;23;20028;-88
2021/09/08 09:11:25;;;;;;;8.77;7.28;;;27.40;55.80;;;;;;6213385;23;20445;-90
2021/09/08 09:14:16;;;;;;;9.98;6.68;;;27.40;57.30;;;;;;6194791;23;20095;-89
2021/09/08 09:17:15;;;;;;;9.40;7.28;;;28.40;51.70;;;;;;6195882;23;20032;-90
2021/09/08 09:20:18;;;;;;;7.78;6.90;;;28.20;53.70;;;;;;6214387;23;20431;-91
2021/09/08 09:23:08;;;;;;;8.90;6.90;;;28.20;53.60;;;;;;6220156;23;20040;-91
2021/09/08 09:25:58;;;;;;;8.68;6.80;;;28.70;52.70;;;;;;6192432;23;20020;-89
2021/09/08 09:28:45;;;;;;;9.95;7.13;;;29.10;54.00;;;;;;6214016;23;20320;-89
2021/09/08 09:31:34;;;;;;;9.90;6.53;;;28.80;52.80;;;;;;6237398;23;20040;-88
2021/09/08 09:34:30;;;;;;;11.48;7.40;;;29.30;53.40;;;;;;6210893;23;20024;-89
2021/09/08 09:37:17;;;;;;;9.00;6.78;;;29.00;51.50;;;;;;6203265;23;20036;-90
2021/09/08 09:40:09;;;;;;;9.27;6.55;;;29.30;53.90;;;;;;6183930;23;20124;-90
2021/09/08 09:43:18;;;;;;;9.27;6.57;;;30.00;51.70;;;;;;6219218;23;20119;-91
2021/09/08 09:46:13;;;;;;;7.05;6.10;;;30.40;49.10;;;;;;6216459;23;20024;-90
2021/09/08 09:49:03;;;;;;;8.20;7.13;;;31.00;47.10;;;;;;6199198;23;20028;-90
2021/09/08 09:51:57;;;;;;;7.90;7.10;;;30.50;48.20;;;;;;6202219;23;20025;-90
2021/09/08 09:54:44;;;;;;;9.95;7.40;;;30.00;48.60;;;;;;6222754;23;20082;-89
2021/09/08 09:57:33;;;;;;;10.18;6.85;;;29.80;50.00;;;;;;6215655;23;20039;-86
2021/09/08 10:00:21;;;;;;;10.30;7.18;;;29.50;49.80;;;;;;6212592;23;20029;-86
2021/09/08 10:03:09;;;;;;;10.27;6.93;;;29.80;50.10;;;;;;6214328;23;20075;-86
2021/09/08 10:06:00;;;;;;;8.52;6.68;;;30.30;49.20;;;;;;6213424;23;20305;-86
2021/09/08 10:08:49;;;;;;;7.93;6.88;;;30.40;48.10;;;;;;6212483;23;20028;-84
2021/09/08 10:11:44;;;;;;;7.82;6.43;;;30.70;49.20;;;;;;6213730;23;20036;-85
2021/09/08 10:14:33;;;;;;;9.48;6.57;;;31.40;48.90;;;;;;6215570;23;20091;-93
2021/09/08 10:17:32;;;;;;;8.05;7.25;;;32.40;46.80;;;;;;6194783;23;20024;-92
2021/09/08 10:20:24;;;;;;;9.20;7.00;;;31.90;47.40;;;;;;6213973;23;20078;-93
2021/09/08 10:23:25;;;;;;;7.85;6.72;;;32.40;45.70;;;;;;6195281;23;20039;-92
2021/09/08 10:26:16;;;;;;;9.98;7.20;;;32.50;44.20;;;;;;6215215;23;20052;-94
2021/09/08 10:29:08;;;;;;;8.15;6.63;;;32.70;44.80;;;;;;6215208;23;20032;-89
2021/09/08 10:31:59;;;;;;;8.30;6.70;;;32.50;45.80;;;;;;6192718;23;20024;-88
2021/09/08 10:34:50;;;;;;;9.57;6.93;;;31.90;46.10;;;;;;6214178;23;20624;-90
2021/09/08 10:38:11;;;;;;;7.00;6.00;;;32.00;47.10;;;;;;6126056;23;20118;-93
2021/09/08 10:41:08;;;;;;;7.72;6.75;;;33.00;46.20;;;;;;6105687;23;20113;-92
2021/09/08 10:44:24;;;;;;;7.88;6.28;;;32.90;43.70;;;;;;6122179;23;20340;-92
2021/09/08 10:47:37;;;;;;;9.07;6.30;;;32.90;44.60;;;;;;6126183;23;20033;-89
2021/09/08 10:50:41;;;;;;;8.60;6.88;;;32.50;43.70;;;;;;6130296;23;20036;-93
2021/09/08 10:53:46;;;;;;;6.75;6.13;;;33.50;44.90;;;;;;6133118;23;20049;-89
2021/09/08 10:56:48;;;;;;;8.75;6.40;;;34.10;41.00;;;;;;6219246;23;20047;-90
2021/09/08 11:00:04;;;;;;;7.97;6.55;;;34.00;41.70;;;;;;6219581;23;20051;-90
2021/09/08 11:02:54;;;;;;;8.57;6.05;;;33.10;42.00;;;;;;6217751;23;20056;-92
2021/09/08 11:05:48;;;;;;;8.15;6.70;;;32.90;42.60;;;;;;6216988;23;20028;-90
2021/09/08 11:08:40;;;;;;;6.85;6.10;;;32.90;44.50;;;;;;6197908;23;20068;-90
2021/09/08 11:11:27;;;;;;;8.85;6.97;;;33.50;43.90;;;;;;6202380;23;20024;-89
2021/09/08 11:14:16;;;;;;;7.97;6.00;;;33.80;41.20;;;;;;6202220;23;20023;-91
2021/09/08 11:17:06;;;;;;;12.45;6.57;;;34.20;41.20;;;;;;6223122;23;20028;-91
2021/09/08 11:19:55;;;;;;;10.20;6.75;;;34.60;40.40;;;;;;6222336;23;20050;-90
2021/09/08 11:22:58;;;;;;;7.55;6.15;;;33.70;41.70;;;;;;6218837;23;20029;-88
2021/09/08 11:25:47;;;;;;;8.90;6.20;;;34.00;42.20;;;;;;6193400;23;20039;-90
2021/09/08 11:28:36;;;;;;;8.00;6.35;;;34.10;42.20;;;;;;6224993;23;20020;-89
2021/09/08 11:31:24;;;;;;;10.10;7.10;;;33.70;41.30;;;;;;6223553;23;20029;-91
2021/09/08 11:34:27;;;;;;;8.77;6.25;;;33.90;41.30;;;;;;6197742;23;20276;-89
2021/09/08 11:37:17;;;;;;;7.05;6.35;;;34.20;41.30;;;;;;6222506;23;20082;-90
2021/09/08 11:40:08;;;;;;;10.23;6.30;;;34.20;39.90;;;;;;6207853;23;20025;-87
2021/09/08 11:42:56;;;;;;;7.40;6.40;;;34.50;40.70;;;;;;6207460;23;20023;-89
2021/09/08 11:45:44;;;;;;;8.50;7.55;;;34.40;40.00;;;;;;6202181;23;20029;-89
2021/09/08 11:48:31;;;;;;;7.18;5.70;;;34.30;39.50;;;;;;6219187;23;20088;-91
2021/09/08 11:51:25;;;;;;;6.32;5.53;;;34.70;39.70;;;;;;6215490;23;20513;-87
2021/09/08 11:54:26;;;;;;;6.93;5.97;;;35.40;40.30;;;;;;6213218;23;20411;-88
2021/09/08 11:57:21;;;;;;;6.85;5.93;;;35.00;39.40;;;;;;6211054;23;20035;-86
2021/09/08 12:00:09;;;;;;;8.52;6.30;;;35.20;39.90;;;;;;6171359;23;20262;-90
2021/09/08 12:02:57;;;;;;;7.40;6.30;;;34.50;40.40;;;;;;6189542;23;20488;-87
2021/09/08 12:05:44;;;;;;;7.40;6.57;;;34.50;42.20;;;;;;6210200;23;20036;-86
2021/09/08 12:08:32;;;;;;;6.70;6.00;;;34.30;40.60;;;;;;6216631;23;20032;-86
2021/09/08 12:11:38;;;;;;;7.22;5.78;;;34.80;40.80;;;;;;6211525;23;20021;-87
2021/09/08 12:14:39;;;;;;;6.97;5.72;;;35.50;38.10;;;;;;6214534;23;20075;-91
2021/09/08 12:17:29;;;;;;;9.88;6.30;;;36.00;38.30;;;;;;6212587;23;20028;-87
2021/09/08 12:20:22;;;;;;;6.20;5.60;;;36.30;38.90;;;;;;6210819;23;20055;-87
2021/09/08 12:23:28;;;;;;;8.98;5.43;;;36.40;36.10;;;;;;6214851;23;20024;-88
2021/09/08 12:26:18;;;;;;;7.32;5.20;;;36.30;35.70;;;;;;6213219;23;20029;-85
2021/09/08 12:29:07;;;;;;;6.80;5.60;;;36.00;39.20;;;;;;6211028;23;20048;-84
2021/09/08 12:31:57;;;;;;;11.32;6.07;;;36.00;36.80;;;;;;6189863;23;20040;-84
2021/09/08 12:34:47;;;;;;;10.05;5.65;;;35.20;37.80;;;;;;6213041;23;20036;-87
2021/09/08 12:37:36;;;;;;;7.20;5.57;;;35.70;35.80;;;;;;6211913;23;20025;-88
2021/09/08 12:40:26;;;;;;;5.53;4.63;;;36.50;36.00;;;;;;6189438;23;20036;-88
2021/09/08 12:43:29;;;;;;;6.47;5.03;;;37.60;35.00;;;;;;6210915;23;20079;-89
2021/09/08 12:46:17;;;;;;;6.63;5.38;;;38.00;34.10;;;;;;6188404;23;20087;-87
2021/09/08 12:49:06;;;;;;;9.77;5.30;;;37.20;35.20;;;;;;6190915;23;20393;-90
2021/09/08 12:51:54;;;;;;;6.40;4.80;;;37.30;34.70;;;;;;6190565;23;20110;-88
2021/09/08 12:54:44;;;;;;;4.90;4.40;;;38.30;34.10;;;;;;6214179;23;20103;-89
2021/09/08 12:57:32;;;;;;;6.07;4.78;;;38.40;31.30;;;;;;6190736;23;20029;-87
2021/09/08 13:00:20;;;;;;;7.13;5.10;;;38.00;32.60;;;;;;6190346;23;20054;-88
2021/09/08 13:03:07;;;;;;;5.28;4.40;;;38.00;31.40;;;;;;6189778;23;20036;-87
2021/09/08 13:05:55;;;;;;;6.43;4.82;;;38.60;30.00;;;;;;6193362;23;20028;-89
2021/09/08 13:08:42;;;;;;;5.32;4.32;;;39.30;29.80;;;;;;6190949;23;20416;-90
2021/09/08 13:11:32;;;;;;;6.70;4.63;;;38.30;31.60;;;;;;6213159;23;20099;-88
2021/09/08 13:14:23;;;;;;;7.05;4.65;;;37.60;32.60;;;;;;6213854;23;20024;-88
2021/09/08 13:17:10;;;;;;;5.55;4.30;;;37.10;33.70;;;;;;6215366;23;20083;-86
2021/09/08 13:19:57;;;;;;;6.18;4.35;;;36.50;34.90;;;;;;6213943;23;20033;-90
2021/09/08 13:22:45;;;;;;;7.07;4.93;;;36.30;33.70;;;;;;6216667;23;20024;-88
2021/09/08 13:25:34;;;;;;;8.65;4.78;;;36.30;34.50;;;;;;6192333;23;20028;-88
2021/09/08 13:28:22;;;;;;;5.25;4.75;;;37.00;33.20;;;;;;6213283;23;20044;-88
2021/09/08 13:31:13;;;;;;;5.32;4.65;;;36.80;34.60;;;;;;6214259;23;20059;-89
2021/09/08 13:34:04;;;;;;;6.70;4.57;;;36.80;33.60;;;;;;6192711;23;20020;-88
2021/09/08 13:36:51;;;;;;;6.78;4.70;;;36.90;33.60;;;;;;6215213;23;20087;-89
2021/09/08 13:39:43;;;;;;;6.20;4.57;;;37.10;33.90;;;;;;6212295;23;20040;-90
2021/09/08 13:42:32;;;;;;;6.28;3.95;;;37.00;33.40;;;;;;6214351;23;20025;-88
2021/09/08 13:45:19;;;;;;;6.32;4.30;;;36.70;34.40;;;;;;6189410;23;20024;-88
2021/09/08 13:48:07;;;;;;;5.78;4.70;;;36.50;33.80;;;;;;6190465;23;20047;-91
2021/09/08 13:50:54;;;;;;;8.02;4.38;;;36.40;33.70;;;;;;6190844;23;20024;-87
2021/09/08 13:53:42;;;;;;;7.38;4.15;;;36.20;34.30;;;;;;6214382;23;20028;-85
2021/09/08 13:56:29;;;;;;;5.75;3.85;;;36.30;34.00;;;;;;6190244;23;20025;-86
2021/09/08 13:59:16;;;;;;;4.57;3.92;;;36.50;34.00;;;;;;6213187;23;20043;-87
2021/09/08 14:02:05;;;;;;;8.35;3.83;;;36.90;33.70;;;;;;6191455;23;20087;-87
2021/09/08 14:05:14;;;;;;;6.32;4.10;;;36.90;31.80;;;;;;6196533;23;20035;-88
2021/09/08 14:08:01;;;;;;;4.93;4.00;;;36.60;32.40;;;;;;6214641;23;20036;-91
2021/09/08 14:10:48;;;;;;;5.82;3.45;;;36.10;33.30;;;;;;6212589;23;20024;-89
2021/09/08 14:13:38;;;;;;;4.32;3.83;;;36.50;31.70;;;;;;6193501;23;20078;-89
2021/09/08 14:16:27;;;;;;;4.63;3.70;;;37.20;31.30;;;;;;6213027;23;20308;-88
2021/09/08 14:19:17;;;;;;;4.22;3.83;;;36.60;30.70;;;;;;6192283;23;20025;-88
2021/09/08 14:22:08;;;;;;;4.50;3.60;;;36.60;32.00;;;;;;6214745;23;20017;-87
2021/09/08 14:25:00;;;;;;;4.60;3.20;;;36.40;32.30;;;;;;6211046;23;20042;-86
2021/09/08 14:27:49;;;;;;;4.43;3.50;;;36.50;31.60;;;;;;6211288;23;20120;-86
2021/09/08 14:30:36;;;;;;;5.18;3.72;;;37.10;30.00;;;;;;6191631;23;20090;-87
2021/09/08 14:33:26;;;;;;;4.45;3.55;;;37.10;28.60;;;;;;6190161;23;20039;-93
2021/09/08 14:36:16;;;;;;;5.40;3.25;;;36.50;31.40;;;;;;6179645;23;20036;-91